Portada
METAR-TAF:

METAR-TAF

Aeroports :

Blackpool, Anglaterra

latitud: 53-46N, longitud: 003-02W, altitud: 10 m

Observació

L'informe es va fer fa 5 hores i 13 minuts, a les 20:50 UTC
Vent 4 kt del Nord/Nord-Oest
Temperatura 19°C
Humitat 68%
Pressió 1020 hPa
Visibilitat 10 km o més
sense núvols per sota de 1500 mi sense presència de cumulonimbus.

METAR: EGNH 152050Z 33004KT CAVOK 19/13 Q1020

Hora: 03:03 (02:03 UTC)

Pronòstic

L'informe es va fer fa 9 hores i 3 minuts, a les 17:00 UTC
Pronòstic vàlid del 15 a les 18 UTC al 15 a les 20 UTC
Vent 7 kt del Nord/Nord-Oest
Visibilitat 10 km o més
Núvols disperses a una alçada de 3500 ft

TAF: EGNH 151700Z 1518/1520 33007KT 9999 SCT035

Observacions i pronòstics meteorològics de més de 4000 aeroports (METAR i TAF).

Les estacions disponibles són els punts grocs i vermells al mapa.

Posi el ratolí al punt desitjat per veure el nom de l'estació.

Feu clic per veure les observacions i els pronòstics meteorològics.

Per canviar el mapa: feu clic els botons verds amb una creu de color negre per apropar; al botó verd amb un guió per allunyar la imatge; o en les fletxes verdes per a mapes adjacents.


METAR-TAF: